Yenbo, Saudi Arabia
Current Conditions -  °F | °C
As of 2:00 PM on Sunday 23 Nov 2014 (Local Time) from OEYN Reporting Station
Few Clouds Few Clouds  
Wind Chill: 90°   Ceiling: Unl
Heat Index: 90°   Visibility: 6mi
Dew Point: 46°   Wind: 12mph
Humidity: 22%   Direction: 250°WSW
Pressure: 29.8"   Gusts: NA
Location:  24.15°N, 38.07°E
Report Text: OEYN 231100Z 25010KT 9999 FEW030 32/08 Q1009 NOSIG
Loading
Personal Weather Stations






























Interactive Weather Map New forecast layout! Learn more

10-Day Weather Forecast

Advertisements
Track Severe Weather on mobile